Time;durP1;ratioP1;P1;durP2;ratioP2;P2;SDS_P1;SDS_P2;PMS_P1;PMS_P2;Temp;Humidity;BMP_temperature;BMP_pressure;BME280_temperature;BME280_humidity;BME280_pressure;Samples;Min_cycle;Max_cycle;Signal;HPM_P1;HPM_P2
2023/09/30 00:00:13;;;;;;;6.10;4.70;;;;;;;12.18;100.00;100751.02;108905;1253;60058;-54
2023/09/30 00:02:40;;;;;;;6.30;5.70;;;;;;;12.18;100.00;100747.77;109053;1254;73098;-54
2023/09/30 00:05:08;;;;;;;6.60;5.90;;;;;;;12.18;100.00;100745.79;108637;1257;65799;-53
2023/09/30 00:07:35;;;;;;;8.10;7.20;;;;;;;12.16;100.00;100742.84;109084;1254;72684;-53
2023/09/30 00:10:04;;;;;;;6.40;5.80;;;;;;;12.13;100.00;100744.75;105117;1254;59644;-54
2023/09/30 00:12:31;;;;;;;7.80;6.20;;;;;;;12.05;100.00;100739.63;105065;1257;60147;-53
2023/09/30 00:14:58;;;;;;;7.60;6.30;;;;;;;11.99;100.00;100740.80;109096;1257;70878;-54
2023/09/30 00:17:26;;;;;;;6.00;5.40;;;;;;;11.95;100.00;100740.77;107866;1254;68272;-54
2023/09/30 00:19:53;;;;;;;5.70;4.40;;;;;;;11.94;100.00;100736.13;104831;1258;71476;-53
2023/09/30 00:22:21;;;;;;;6.40;5.50;;;;;;;11.92;100.00;100732.58;104766;1254;62213;-51
2023/09/30 00:24:48;;;;;;;7.30;5.50;;;;;;;11.90;100.00;100734.30;105038;1258;59649;-53
2023/09/30 00:27:15;;;;;;;6.10;5.40;;;;;;;11.87;100.00;100732.27;105034;1257;72326;-51
2023/09/30 00:29:43;;;;;;;6.20;5.10;;;;;;;11.85;100.00;100727.65;105120;1258;67820;-54
2023/09/30 00:32:10;;;;;;;5.70;5.20;;;;;;;11.86;100.00;100725.10;104990;1254;71445;-53
2023/09/30 00:34:38;;;;;;;5.50;4.90;;;;;;;11.88;100.00;100723.61;104873;1255;60519;-53
2023/09/30 00:37:05;;;;;;;8.10;6.70;;;;;;;11.90;100.00;100723.32;104888;1254;61358;-51
2023/09/30 00:39:33;;;;;;;9.80;7.60;;;;;;;11.91;100.00;100727.77;105097;1257;73116;-50
2023/09/30 00:42:00;;;;;;;12.30;7.20;;;;;;;11.91;100.00;100725.64;105420;1257;65484;-52
2023/09/30 00:44:28;;;;;;;8.20;7.20;;;;;;;11.91;100.00;100727.79;105077;1254;72821;-54
2023/09/30 00:46:55;;;;;;;8.70;7.30;;;;;;;11.90;100.00;100725.85;105072;1254;59721;-54
2023/09/30 00:49:23;;;;;;;9.50;8.40;;;;;;;11.89;100.00;100723.00;105223;1259;59661;-53
2023/09/30 00:51:51;;;;;;;7.80;6.90;;;;;;;11.87;100.00;100720.91;105143;1253;72270;-53
2023/09/30 00:54:19;;;;;;;6.60;6.00;;;;;;;11.86;100.00;100725.10;105020;1255;66279;-53
2023/09/30 00:56:47;;;;;;;9.50;6.40;;;;;;;11.84;100.00;100723.90;105238;1257;72789;-52
2023/09/30 00:59:14;;;;;;;7.80;6.50;;;;;;;11.83;100.00;100724.32;105140;1260;61100;-53
2023/09/30 01:01:43;;;;;;;6.00;5.30;;;;;;;11.79;100.00;100725.73;105059;1255;59758;-53
2023/09/30 01:04:11;;;;;;;5.60;5.20;;;;;;;11.69;100.00;100730.21;105430;1254;72792;-54
2023/09/30 01:06:39;;;;;;;7.10;6.40;;;;;;;11.54;100.00;100731.29;105077;1254;66796;-52
2023/09/30 01:09:09;;;;;;;6.20;5.60;;;;;;;11.41;100.00;100730.16;105100;1254;71417;-52
2023/09/30 01:11:37;;;;;;;6.90;6.30;;;;;;;11.36;100.00;100728.35;105393;1257;60549;-53
2023/09/30 01:14:04;;;;;;;8.80;6.90;;;;;;;11.35;100.00;100723.89;104986;1260;60597;-53
2023/09/30 01:16:31;;;;;;;7.00;6.30;;;;;;;11.36;100.00;100723.14;104893;1254;72668;-53
2023/09/30 01:19:02;;;;;;;13.00;8.00;;;;;;;11.37;100.00;100715.39;105168;1254;68614;-53
2023/09/30 01:21:34;;;;;;;8.20;6.30;;;;;;;11.38;100.00;100709.95;104854;1259;71327;-52
2023/09/30 01:24:01;;;;;;;7.40;6.70;;;;;;;11.37;100.00;100712.69;105361;1254;60693;-53
2023/09/30 01:26:28;;;;;;;7.80;7.10;;;;;;;11.36;100.00;100710.56;104853;1259;62138;-52
2023/09/30 01:28:56;;;;;;;6.10;5.60;;;;;;;11.35;100.00;100710.08;104973;1257;73950;-53
2023/09/30 01:31:23;;;;;;;11.30;5.80;;;;;;;11.31;100.00;100711.48;104911;1257;65710;-53
2023/09/30 01:33:54;;;;;;;6.50;5.80;;;;;;;11.23;100.00;100713.77;104842;1257;72588;-54
2023/09/30 01:36:22;;;;;;;5.70;4.60;;;;;;;11.15;100.00;100717.96;105169;1255;60666;-52
2023/09/30 01:38:49;;;;;;;10.50;6.30;;;;;;;11.13;100.00;100713.92;105172;1257;60386;-53
2023/09/30 01:41:16;;;;;;;6.40;5.80;;;;;;;11.15;100.00;100716.70;105072;1258;74355;-54
2023/09/30 01:43:44;;;;;;;8.30;4.60;;;;;;;11.17;100.00;100712.88;104824;1259;65508;-53
2023/09/30 01:46:11;;;;;;;8.20;5.50;;;;;;;11.14;100.00;100717.29;104905;1254;72622;-54
2023/09/30 01:48:40;;;;;;;8.90;6.20;;;;;;;11.07;100.00;100716.10;104718;1257;60508;-53
2023/09/30 01:51:08;;;;;;;13.20;6.50;;;;;;;11.00;100.00;100719.74;104963;1257;60511;-53
2023/09/30 01:53:35;;;;;;;6.80;6.20;;;;;;;10.94;100.00;100716.37;105051;1253;72544;-54
2023/09/30 01:56:03;;;;;;;9.20;6.40;;;;;;;10.92;100.00;100716.09;104900;1254;67405;-52
2023/09/30 01:58:30;;;;;;;12.10;6.70;;;;;;;10.93;100.00;100716.60;105255;1254;71605;-51
2023/09/30 02:01:04;;;;;;;7.40;5.40;;;;;;;10.94;100.00;100715.14;104855;1256;60619;-54
2023/09/30 02:03:31;;;;;;;7.10;6.30;;;;;;;10.94;100.00;100715.48;105165;1253;60528;-55
2023/09/30 02:05:59;;;;;;;7.30;5.80;;;;;;;10.95;100.00;100714.03;105318;1254;72747;-55
2023/09/30 02:08:27;;;;;;;6.60;5.90;;;;;;;10.96;100.00;100714.72;104877;1257;67093;-55
2023/09/30 02:10:54;;;;;;;6.50;5.30;;;;;;;10.92;100.00;100713.92;104963;1260;71217;-52
2023/09/30 02:13:21;;;;;;;5.60;5.00;;;;;;;10.85;100.00;100713.64;104931;1254;61651;-55
2023/09/30 02:15:49;;;;;;;6.50;5.10;;;;;;;10.82;100.00;100709.98;104838;1254;60692;-54
2023/09/30 02:18:17;;;;;;;5.80;5.30;;;;;;;10.81;100.00;100707.30;105412;1260;72627;-54
2023/09/30 02:20:46;;;;;;;7.20;5.40;;;;;;;10.80;100.00;100705.23;106207;1257;65847;-54
2023/09/30 02:23:15;;;;;;;7.40;6.60;;;;;;;10.78;100.00;100703.11;105053;1254;72743;-54
2023/09/30 02:25:44;;;;;;;6.40;5.80;;;;;;;10.76;100.00;100699.77;106610;1254;60580;-53
2023/09/30 02:28:12;;;;;;;11.00;7.30;;;;;;;10.74;100.00;100700.89;104780;1254;60354;-54
2023/09/30 02:30:40;;;;;;;8.00;6.60;;;;;;;10.75;100.00;100702.68;104930;1253;72661;-54
2023/09/30 02:33:08;;;;;;;9.30;7.10;;;;;;;10.72;100.00;100701.69;107022;1256;66772;-54
2023/09/30 02:35:38;;;;;;;11.50;7.80;;;;;;;10.69;100.00;100698.40;104830;1257;71728;-55
2023/09/30 02:38:06;;;;;;;9.40;6.50;;;;;;;10.67;100.00;100699.17;105005;1254;60643;-53
2023/09/30 02:40:35;;;;;;;8.40;7.10;;;;;;;10.67;100.00;100699.38;104974;1254;60313;-54
2023/09/30 02:43:02;;;;;;;6.00;5.50;;;;;;;10.60;100.00;100697.24;105054;1254;73800;-54
2023/09/30 02:45:29;;;;;;;6.30;5.10;;;;;;;10.49;100.00;100702.65;104804;1254;67043;-54
2023/09/30 02:47:57;;;;;;;5.20;4.70;;;;;;;10.38;100.00;100700.30;105002;1257;71414;-53
2023/09/30 02:50:26;;;;;;;11.20;5.60;;;;;;;10.35;100.00;100698.63;108960;1253;60438;-55
2023/09/30 02:52:54;;;;;;;6.20;4.00;;;;;;;10.35;100.00;100699.19;107262;1253;59234;-55
2023/09/30 02:55:21;;;;;;;10.70;5.30;;;;;;;10.34;100.00;100696.68;104872;1254;72584;-54
2023/09/30 02:57:49;;;;;;;9.60;5.60;;;;;;;10.35;100.00;100691.81;104980;1254;67041;-54
2023/09/30 03:00:23;;;;;;;6.70;6.00;;;;;;;10.37;100.00;100692.13;109085;1253;71928;-55
2023/09/30 03:02:55;;;;;;;5.80;5.30;;;;;;;10.38;100.00;100692.80;108426;1254;60044;-54
2023/09/30 03:05:23;;;;;;;9.00;7.00;;;;;;;10.41;100.00;100691.63;109128;1253;58089;-55
2023/09/30 03:07:51;;;;;;;12.60;6.50;;;;;;;10.44;100.00;100692.23;109061;1253;72445;-55
2023/09/30 03:10:20;;;;;;;7.40;6.60;;;;;;;10.47;100.00;100690.48;109037;1252;66783;-55
2023/09/30 03:12:48;;;;;;;7.70;6.80;;;;;;;10.48;100.00;100687.06;108994;1254;72733;-55
2023/09/30 03:15:16;;;;;;;7.70;5.30;;;;;;;10.46;100.00;100682.29;109028;1254;61821;-55
2023/09/30 03:17:43;;;;;;;5.90;5.40;;;;;;;10.46;100.00;100684.83;105698;1257;61078;-54
2023/09/30 03:20:14;;;;;;;6.30;5.70;;;;;;;10.47;100.00;100684.41;104931;1254;72886;-55
2023/09/30 03:22:42;;;;;;;6.60;5.30;;;;;;;10.45;100.00;100682.89;104871;1258;65850;-54
2023/09/30 03:25:11;;;;;;;6.50;5.90;;;;;;;10.46;100.00;100678.01;104995;1254;71488;-54
2023/09/30 03:27:38;;;;;;;6.80;5.20;;;;;;;10.47;100.00;100677.05;105115;1254;60559;-54
2023/09/30 03:30:07;;;;;;;6.70;5.30;;;;;;;10.47;100.00;100677.23;105002;1253;60410;-54
2023/09/30 03:32:38;;;;;;;10.70;5.50;;;;;;;10.45;100.00;100675.50;105235;1254;72615;-54
2023/09/30 03:35:07;;;;;;;6.50;5.50;;;;;;;10.43;100.00;100671.81;105032;1257;66097;-54
2023/09/30 03:37:34;;;;;;;7.30;5.70;;;;;;;10.41;100.00;100670.23;105151;1257;72755;-55
2023/09/30 03:40:11;;;;;;;5.70;5.30;;;;;;;10.43;100.00;100667.32;104982;1256;61169;-54
2023/09/30 03:42:39;;;;;;;7.30;6.60;;;;;;;10.46;100.00;100666.15;104990;1255;60970;-54
2023/09/30 03:45:08;;;;;;;6.70;6.00;;;;;;;10.48;100.00;100665.52;104956;1254;73802;-54
2023/09/30 03:47:37;;;;;;;6.90;6.20;;;;;;;10.47;100.00;100667.52;105223;1254;66911;-54
2023/09/30 03:50:05;;;;;;;8.20;6.90;;;;;;;10.45;100.00;100666.88;106214;1254;71722;-54
2023/09/30 03:52:33;;;;;;;6.00;5.50;;;;;;;10.41;100.00;100666.11;105491;1254;62120;-55
2023/09/30 03:55:04;;;;;;;6.70;5.60;;;;;;;10.31;100.00;100669.16;104948;1257;60684;-54
2023/09/30 03:57:33;;;;;;;5.30;4.90;;;;;;;10.18;100.00;100670.83;104927;1254;72664;-54
2023/09/30 04:00:01;;;;;;;4.50;4.10;;;;;;;10.12;100.00;100669.02;105336;1253;67529;-54
2023/09/30 04:02:38;;;;;;;5.40;5.00;;;;;;;10.10;100.00;100668.55;106712;1254;71882;-54
2023/09/30 04:05:07;;;;;;;5.40;4.90;;;;;;;10.13;100.00;100668.79;104967;1256;61735;-54
2023/09/30 04:07:35;;;;;;;10.10;5.90;;;;;;;10.18;100.00;100672.80;105053;1253;60511;-54
2023/09/30 04:10:04;;;;;;;5.00;4.30;;;;;;;10.22;100.00;100667.11;104857;1254;72973;-54
2023/09/30 04:12:32;;;;;;;8.10;5.00;;;;;;;10.25;100.00;100670.06;105361;1256;65655;-53
2023/09/30 04:15:00;;;;;;;5.70;5.10;;;;;;;10.30;100.00;100674.22;105136;1257;72713;-53
2023/09/30 04:17:27;;;;;;;5.90;5.30;;;;;;;10.33;100.00;100672.67;104856;1254;62097;-54
2023/09/30 04:19:55;;;;;;;7.40;5.50;;;;;;;10.36;100.00;100671.86;104998;1254;60559;-56
2023/09/30 04:22:24;;;;;;;9.90;5.30;;;;;;;10.39;100.00;100670.14;104982;1253;72547;-55
2023/09/30 04:24:51;;;;;;;7.30;6.60;;;;;;;10.36;100.00;100672.06;104995;1253;66187;-55
2023/09/30 04:27:21;;;;;;;6.90;6.40;;;;;;;10.26;100.00;100675.95;105562;1253;71463;-54
2023/09/30 04:29:49;;;;;;;5.40;5.10;;;;;;;10.17;100.00;100673.54;105310;1254;60674;-55
2023/09/30 04:32:17;;;;;;;7.90;5.30;;;;;;;10.14;100.00;100670.38;106599;1253;60727;-54
2023/09/30 04:34:45;;;;;;;6.30;4.80;;;;;;;10.15;100.00;100676.27;104838;1254;73931;-54
2023/09/30 04:37:13;;;;;;;11.60;5.30;;;;;;;10.17;100.00;100677.84;104880;1253;67067;-53
2023/09/30 04:39:41;;;;;;;6.00;5.40;;;;;;;10.19;100.00;100671.89;109001;1254;72621;-54
2023/09/30 04:42:11;;;;;;;7.30;5.00;;;;;;;10.21;100.00;100671.43;107362;1253;60509;-53
2023/09/30 04:44:39;;;;;;;6.70;5.20;;;;;;;10.28;100.00;100666.04;104984;1254;60587;-55
2023/09/30 04:47:07;;;;;;;8.70;5.60;;;;;;;10.35;100.00;100671.71;104826;1254;72657;-55
2023/09/30 04:49:35;;;;;;;7.60;4.60;;;;;;;10.44;100.00;100668.73;105051;1255;65674;-54
2023/09/30 04:52:05;;;;;;;5.00;4.30;;;;;;;10.53;100.00;100669.48;104718;1254;73219;-54
2023/09/30 04:54:35;;;;;;;9.40;5.30;;;;;;;10.64;100.00;100666.98;104824;1255;60612;-54
2023/09/30 04:57:02;;;;;;;5.60;4.40;;;;;;;10.74;100.00;100670.04;108964;1253;58833;-55
2023/09/30 04:59:30;;;;;;;13.40;5.40;;;;;;;10.82;100.00;100664.35;105617;1254;72654;-54
2023/09/30 05:01:57;;;;;;;11.10;6.40;;;;;;;10.92;100.00;100661.67;105038;1254;67312;-55
2023/09/30 05:04:25;;;;;;;8.50;6.80;;;;;;;11.01;100.00;100662.97;104863;1254;71426;-54
2023/09/30 05:06:53;;;;;;;6.30;5.80;;;;;;;11.10;100.00;100662.10;105388;1254;60608;-55
2023/09/30 05:09:20;;;;;;;6.60;5.70;;;;;;;11.14;100.00;100658.59;104860;1254;60536;-53
2023/09/30 05:11:48;;;;;;;6.70;5.60;;;;;;;11.16;100.00;100658.30;105487;1254;72142;-54
2023/09/30 05:14:16;;;;;;;6.50;5.90;;;;;;;11.20;100.00;100657.42;104890;1257;65742;-53
2023/09/30 05:16:43;;;;;;;5.70;5.00;;;;;;;11.28;100.00;100657.33;104951;1254;71451;-54
2023/09/30 05:19:11;;;;;;;8.60;5.20;;;;;;;11.35;100.00;100657.58;104767;1257;60565;-54
2023/09/30 05:21:38;;;;;;;5.80;3.40;;;;;;;11.45;100.00;100653.09;104705;1258;59170;-54
2023/09/30 05:24:06;;;;;;;7.00;3.80;;;;;;;11.61;100.00;100655.02;104902;1254;73870;-54
2023/09/30 05:26:34;;;;;;;4.90;4.30;;;;;;;11.77;100.00;100658.89;104956;1258;65992;-53
2023/09/30 05:29:02;;;;;;;5.00;4.40;;;;;;;11.93;100.00;100653.23;104872;1254;72748;-54
2023/09/30 05:31:29;;;;;;;6.20;4.40;;;;;;;12.09;100.00;100654.02;104932;1254;61648;-54
2023/09/30 05:33:57;;;;;;;5.70;3.70;;;;;;;12.25;100.00;100656.09;105093;1254;60561;-54
2023/09/30 05:36:25;;;;;;;5.70;3.80;;;;;;;12.38;100.00;100656.62;104949;1254;72641;-52
2023/09/30 05:38:52;;;;;;;8.30;4.50;;;;;;;12.53;100.00;100656.36;104821;1254;67460;-54
2023/09/30 05:41:20;;;;;;;7.70;5.60;;;;;;;12.68;100.00;100655.19;105194;1255;71497;-54
2023/09/30 05:43:48;;;;;;;7.00;6.30;;;;;;;12.82;100.00;100657.65;104774;1254;60561;-54
2023/09/30 05:46:15;;;;;;;5.80;5.30;;;;;;;12.96;100.00;100651.81;104883;1254;60501;-54
2023/09/30 05:48:43;;;;;;;7.00;5.90;;;;;;;13.08;100.00;100651.81;104914;1258;72879;-54
2023/09/30 05:51:14;;;;;;;5.90;5.50;;;;;;;13.19;100.00;100646.30;105139;1254;68956;-54
2023/09/30 05:53:42;;;;;;;5.30;4.80;;;;;;;13.31;100.00;100641.63;104707;1254;74296;-54
2023/09/30 05:56:11;;;;;;;5.60;4.30;;;;;;;13.43;100.00;100641.98;104918;1254;61766;-54
2023/09/30 05:58:38;;;;;;;5.20;4.70;;;;;;;13.54;100.00;100641.59;104982;1257;60367;-54
2023/09/30 06:01:12;;;;;;;5.30;4.80;;;;;;;13.67;100.00;100641.52;104760;1254;73957;-54
2023/09/30 06:03:40;;;;;;;7.40;4.00;;;;;;;13.81;100.00;100643.56;109039;1253;64867;-54
2023/09/30 06:06:12;;;;;;;5.60;4.60;;;;;;;13.95;100.00;100642.36;109056;1254;71442;-54
2023/09/30 06:08:39;;;;;;;7.00;4.40;;;;;;;14.11;100.00;100642.34;109083;1254;61760;-55
2023/09/30 06:11:07;;;;;;;4.40;3.90;;;;;;;14.26;100.00;100639.02;107370;1257;58876;-54
2023/09/30 06:13:34;;;;;;;8.10;4.40;;;;;;;14.44;100.00;100636.57;104965;1254;72687;-54
2023/09/30 06:16:02;;;;;;;6.40;4.70;;;;;;;14.61;100.00;100636.80;104890;1254;66946;-54
2023/09/30 06:18:30;;;;;;;8.10;5.30;;;;;;;14.78;100.00;100636.44;109060;1253;72613;-55
2023/09/30 06:20:57;;;;;;;14.40;5.70;;;;;;;14.95;100.00;100629.44;106065;1253;60549;-54
2023/09/30 06:23:25;;;;;;;7.60;5.30;;;;;;;15.13;100.00;100630.27;104751;1258;60466;-55
2023/09/30 06:25:52;;;;;;;13.60;6.10;;;;;;;15.30;100.00;100631.35;104949;1257;73908;-54
2023/09/30 06:28:25;;;;;;;11.60;6.30;;;;;;;15.45;100.00;100628.14;104554;1253;65849;-54
2023/09/30 06:30:53;;;;;;;11.10;6.10;;;;;;;15.62;100.00;100632.70;104689;1254;70459;-54
2023/09/30 06:33:21;;;;;;;8.90;4.20;;;;;;;15.77;100.00;100633.31;108162;1254;60005;-54
2023/09/30 06:35:52;;;;;;;5.60;5.10;;;;;;;15.90;100.00;100634.00;104683;1254;60521;-51
2023/09/30 06:38:19;;;;;;;5.50;3.90;;;;;;;16.05;100.00;100634.99;104736;1253;72629;-53
2023/09/30 06:40:47;;;;;;;7.20;4.80;;;;;;;16.18;100.00;100636.76;104793;1257;66976;-54
2023/09/30 06:43:17;;;;;;;8.80;4.80;;;;;;;16.32;100.00;100632.34;104566;1254;71461;-54
2023/09/30 06:45:46;;;;;;;9.10;4.40;;;;;;;16.46;100.00;100629.30;104790;1258;61219;-54
2023/09/30 06:48:15;;;;;;;8.70;4.90;;;;;;;16.61;100.00;100626.64;105508;1253;60536;-55
2023/09/30 06:50:48;;;;;;;11.00;4.20;;;;;;;16.76;100.00;100623.44;104750;1254;72668;-55
2023/09/30 06:53:16;;;;;;;6.20;4.50;;;;;;;16.89;100.00;100622.06;104904;1259;65747;-51
2023/09/30 06:55:43;;;;;;;6.00;4.10;;;;;;;17.00;100.00;100624.27;104960;1257;73242;-54
2023/09/30 06:58:11;;;;;;;5.90;4.00;;;;;;;17.12;100.00;100624.31;105075;1253;61061;-54
2023/09/30 07:00:38;;;;;;;11.20;4.30;;;;;;;17.22;100.00;100621.86;104910;1254;61021;-53
2023/09/30 07:03:06;;;;;;;4.90;3.90;;;;;;;17.32;100.00;100620.27;105797;1256;73812;-54
2023/09/30 07:05:33;;;;;;;6.10;4.00;;;;;;;17.44;100.00;100620.27;104782;1254;67614;-54
2023/09/30 07:08:01;;;;;;;3.50;3.20;;;;;;;17.54;100.00;100620.00;104891;1255;72343;-55
2023/09/30 07:10:31;;;;;;;8.40;3.30;;;;;;;17.64;100.00;100621.38;104859;1254;60819;-54
2023/09/30 07:13:01;;;;;;;4.60;3.10;;;;;;;17.74;100.00;100624.34;104899;1253;60569;-55
2023/09/30 07:15:29;;;;;;;5.30;2.70;;;;;;;17.84;100.00;100622.64;104928;1254;74681;-54
2023/09/30 07:17:57;;;;;;;4.20;2.40;;;;;;;17.94;100.00;100626.00;105149;1254;65794;-53
2023/09/30 07:20:24;;;;;;;3.60;3.20;;;;;;;18.04;100.00;100624.42;104932;1256;73656;-55
2023/09/30 07:22:52;;;;;;;3.40;2.70;;;;;;;18.13;100.00;100626.16;105176;1254;60646;-55
2023/09/30 07:25:39;;;;;;;6.30;2.10;;;;;;;18.25;100.00;100621.23;104902;1254;60549;-55
2023/09/30 07:28:11;;;;;;;4.10;2.70;;;;;;;18.35;100.00;100622.71;104952;1254;74639;-55
2023/09/30 07:30:39;;;;;;;2.80;1.80;;;;;;;18.45;100.00;100620.59;105675;1255;66914;-54
2023/09/30 07:33:07;;;;;;;4.30;2.60;;;;;;;18.54;100.00;100618.70;104805;1254;72707;-55
2023/09/30 07:35:35;;;;;;;7.60;2.80;;;;;;;18.65;100.00;100619.64;104763;1254;61161;-55
2023/09/30 07:38:04;;;;;;;3.70;2.60;;;;;;;18.76;100.00;100617.60;104830;1254;61930;-55
2023/09/30 07:40:32;;;;;;;6.70;2.70;;;;;;;18.85;100.00;100618.20;106122;1253;72826;-55
2023/09/30 07:43:00;;;;;;;2.80;2.10;;;;;;;18.97;100.00;100617.77;104973;1258;66939;-56
2023/09/30 07:45:27;;;;;;;3.50;2.70;;;;;;;19.09;100.00;100615.88;106249;1253;73050;-53
2023/09/30 07:47:55;;;;;;;2.10;1.70;;;;;;;19.20;100.00;100613.59;104928;1254;60549;-54
2023/09/30 07:50:23;;;;;;;3.40;1.70;;;;;;;19.32;100.00;100612.25;104940;1254;60434;-53
2023/09/30 07:52:50;;;;;;;2.40;2.10;;;;;;;19.42;100.00;100613.30;104824;1254;73952;-53
2023/09/30 07:55:20;;;;;;;3.50;1.80;;;;;;;19.53;100.00;100612.56;104983;1259;66765;-53
2023/09/30 07:57:47;;;;;;;4.80;2.30;;;;;;;19.63;100.00;100608.56;104885;1258;72707;-54
2023/09/30 08:00:15;;;;;;;4.30;2.30;;;;;;;19.73;100.00;100607.64;109003;1254;60112;-55
2023/09/30 08:02:44;;;;;;;7.50;2.50;;;;;;;19.83;100.00;100610.37;109102;1254;58338;-55
2023/09/30 08:05:11;;;;;;;3.90;2.20;;;;;;;19.95;100.00;100610.77;107285;1257;73025;-54
2023/09/30 08:07:39;;;;;;;5.40;2.90;;;;;;;20.05;100.00;100610.90;105438;1254;67192;-55
2023/09/30 08:10:12;;;;;;;4.50;2.30;;;;;;;20.14;100.00;100610.23;106365;1254;70438;-54
2023/09/30 08:12:40;;;;;;;6.60;2.60;;;;;;;20.25;100.00;100607.06;106267;1257;60699;-55
2023/09/30 08:15:11;;;;;;;5.30;1.80;;;;;;;20.35;100.00;100613.21;104954;1258;60577;-55
2023/09/30 08:17:40;;;;;;;3.10;1.90;;;;;;;20.47;100.00;100609.64;105060;1254;72656;-54
2023/09/30 08:20:09;;;;;;;2.40;2.10;;;;;;;20.58;100.00;100609.89;105262;1254;65495;-55
2023/09/30 08:22:37;;;;;;;2.00;1.60;;;;;;;20.67;100.00;100608.59;105129;1257;72725;-54
2023/09/30 08:25:06;;;;;;;6.80;1.80;;;;;;;20.79;100.00;100611.70;105078;1254;60529;-55
2023/09/30 08:27:34;;;;;;;5.00;2.10;;;;;;;20.90;100.00;100607.55;105322;1254;60556;-53
2023/09/30 08:30:05;;;;;;;2.70;2.30;;;;;;;21.01;100.00;100609.65;105402;1254;72921;-54
2023/09/30 08:32:34;;;;;;;5.80;1.90;;;;;;;21.08;100.00;100605.94;105579;1254;66747;-54
2023/09/30 08:35:03;;;;;;;2.80;2.10;;;;;;;21.16;100.00;100607.86;105027;1254;71749;-55
2023/09/30 08:37:31;;;;;;;4.40;2.20;;;;;;;21.25;100.00;100614.35;109103;1254;60144;-56
2023/09/30 08:39:58;;;;;;;4.50;1.90;;;;;;;21.32;100.00;100611.41;107624;1252;60590;-54
2023/09/30 08:42:29;;;;;;;4.10;1.40;;;;;;;21.41;100.00;100608.31;107396;1253;73838;-55
2023/09/30 08:44:59;;;;;;;5.20;1.30;;;;;;;21.53;100.00;100606.98;107081;1257;65686;-55
2023/09/30 08:47:30;;;;;;;3.60;1.50;;;;;;;21.64;100.00;100609.03;105057;1257;71456;-56
2023/09/30 08:50:05;;;;;;;4.40;1.50;;;;;;;21.73;100.00;100608.28;107519;1254;60373;-56
2023/09/30 08:52:34;;;;;;;5.20;1.20;;;;;;;21.81;100.00;100608.52;109017;1252;59241;-56
2023/09/30 08:55:09;;;;;;;3.50;1.20;;;;;;;21.91;100.00;100607.73;109145;1253;72245;-56
2023/09/30 08:57:41;;;;;;;4.90;2.00;;;;;;;21.99;100.00;100605.27;109051;1253;65646;-56
2023/09/30 09:00:12;;;;;;;3.50;1.40;;;;;;;22.08;100.00;100606.48;109014;1253;72712;-57
2023/09/30 09:02:40;;;;;;;3.60;1.40;;;;;;;22.18;100.00;100603.67;109143;1253;60483;-56
2023/09/30 09:05:08;;;;;;;3.20;1.60;;;;;;;22.27;100.00;100602.68;109095;1253;58925;-56
2023/09/30 09:07:35;;;;;;;2.90;1.30;;;;;;;22.36;100.00;100606.70;109117;1253;74280;-56
2023/09/30 09:10:07;;;;;;;2.00;1.80;;;;;;;22.45;100.00;100603.44;109016;1256;67019;-56
2023/09/30 09:12:36;;;;;;;4.40;1.40;;;;;;;22.49;100.00;100607.27;109057;1253;73079;-56
2023/09/30 09:15:08;;;;;;;3.70;1.20;;;;;;;22.54;100.00;100604.59;108903;1253;185363;-56
2023/09/30 09:19:27;;;;;;;3.90;1.50;;;;;;;22.61;100.00;100648.64;101886;1294;600520;-55
2023/09/30 09:21:59;;;;;;;4.90;1.10;;;;;;;22.68;100.00;100641.51;104017;1272;59376;-56
2023/09/30 09:24:42;;;;;;;3.90;1.10;;;;;;;22.74;100.00;100632.73;108279;1269;60072;-54
2023/09/30 09:27:11;;;;;;;3.80;1.10;;;;;;;22.80;100.00;100633.17;104178;1266;70062;-55
2023/09/30 09:29:39;;;;;;;4.90;1.40;;;;;;;22.86;100.00;100632.73;103927;1266;66807;-55
2023/09/30 09:32:14;;;;;;;3.60;1.90;;;;;;;22.91;100.00;100627.27;104286;1269;202655;-56
2023/09/30 09:34:43;;;;;;;2.90;1.00;;;;;;;22.95;100.00;100621.51;104537;1269;59314;-56
2023/09/30 09:37:18;;;;;;;2.40;1.20;;;;;;;22.99;100.00;100625.89;105042;1260;60222;-55
2023/09/30 09:39:50;;;;;;;1.40;1.20;;;;;;;23.04;100.00;100617.36;104484;1267;71809;-54
2023/09/30 09:42:28;;;;;;;2.40;1.50;;;;;;;23.09;100.00;100623.14;104500;1266;67568;-55
2023/09/30 09:45:05;;;;;;;4.70;1.40;;;;;;;23.14;100.00;100620.20;104644;1267;71069;-55
2023/09/30 09:47:33;;;;;;;2.70;1.40;;;;;;;23.19;100.00;100620.27;104852;1266;60125;-56
2023/09/30 09:50:03;;;;;;;2.20;1.40;;;;;;;23.23;100.00;100615.67;104550;1265;59670;-54
2023/09/30 09:52:30;;;;;;;2.60;1.30;;;;;;;23.27;100.00;100616.06;104353;1269;71736;-55
2023/09/30 09:54:58;;;;;;;2.70;1.20;;;;;;;23.32;100.00;100606.45;105399;1266;65822;-54
2023/09/30 09:57:26;;;;;;;1.80;1.30;;;;;;;23.35;100.00;100607.29;104500;1260;72688;-55
2023/09/30 09:59:53;;;;;;;3.50;1.10;;;;;;;23.39;100.00;100606.25;104414;1269;59741;-55
2023/09/30 10:02:22;;;;;;;1.80;1.20;;;;;;;23.43;100.00;100606.83;104460;1273;59670;-55
2023/09/30 10:04:50;;;;;;;2.40;1.00;;;;;;;23.49;100.00;100604.15;104688;1266;73838;-55
2023/09/30 10:07:29;;;;;;;2.80;1.50;;;;;;;23.54;100.00;100599.86;105241;1266;67213;-55
2023/09/30 10:09:58;;;;;;;1.90;1.10;;;;;;;23.57;100.00;100598.99;104558;1265;71473;-54
2023/09/30 10:12:25;;;;;;;4.80;1.10;;;;;;;23.59;100.00;100588.54;104599;1264;60089;-55
2023/09/30 10:14:53;;;;;;;5.50;1.20;;;;;;;23.62;100.00;100589.89;104566;1263;59719;-54
2023/09/30 10:17:20;;;;;;;1.50;1.00;;;;;;;23.66;100.00;100590.27;104533;1264;73684;-55
2023/09/30 10:20:07;;;;;;;2.80;1.00;;;;;;;23.71;100.00;100588.34;104551;1272;66772;-55
2023/09/30 10:22:35;;;;;;;1.70;1.00;;;;;;;23.77;100.00;100585.46;104782;1266;72067;-57
2023/09/30 10:25:32;;;;;;;4.20;1.00;;;;;;;23.80;100.00;100580.78;104653;1264;59831;-55
2023/09/30 10:28:00;;;;;;;5.90;1.00;;;;;;;23.84;100.00;100586.45;104531;1260;60115;-56
2023/09/30 10:30:28;;;;;;;3.40;1.10;;;;;;;23.87;100.00;100580.65;104760;1262;73931;-56
2023/09/30 10:33:07;;;;;;;3.60;1.30;;;;;;;23.90;100.00;100578.79;104853;1258;67718;-55
2023/09/30 10:35:35;;;;;;;2.50;1.20;;;;;;;23.91;100.00;100573.73;105065;1263;71399;-57
2023/09/30 10:38:21;;;;;;;3.40;1.20;;;;;;;23.91;100.00;100573.73;104791;1261;59953;-54
2023/09/30 10:40:50;;;;;;;3.60;1.30;;;;;;;23.93;100.00;100577.54;104738;1257;60297;-55
2023/09/30 10:43:38;;;;;;;1.30;0.90;;;;;;;23.99;100.00;100577.23;105053;1256;73122;-54
2023/09/30 10:46:27;;;;;;;1.50;1.40;;;;;;;24.04;100.00;100572.69;105657;1260;68286;-57
2023/09/30 10:48:57;;;;;;;2.10;0.90;;;;;;;24.09;100.00;100566.54;104745;1263;71436;-56
2023/09/30 10:51:25;;;;;;;1.30;0.90;;;;;;;24.12;100.00;100565.89;105040;1261;59507;-56
2023/09/30 10:53:56;;;;;;;2.60;0.90;;;;;;;24.15;100.00;100564.95;104666;1262;59771;-55
2023/09/30 10:56:24;;;;;;;1.70;0.90;;;;;;;24.18;100.00;100561.02;105542;1261;71836;-57
2023/09/30 10:58:52;;;;;;;2.90;1.00;;;;;;;24.20;100.00;100550.55;104634;1261;66997;-54
2023/09/30 11:01:21;;;;;;;2.80;1.30;;;;;;;24.21;100.00;100553.41;105218;1258;73626;-55
2023/09/30 11:03:51;;;;;;;5.80;1.30;;;;;;;24.22;100.00;100552.83;105082;1257;60035;-55
2023/09/30 11:06:21;;;;;;;2.80;1.40;;;;;;;24.21;100.00;100557.45;104841;1260;59664;-56
2023/09/30 11:08:56;;;;;;;3.00;1.00;;;;;;;24.21;100.00;100557.02;105275;1263;73060;-54
2023/09/30 11:11:48;;;;;;;3.50;1.10;;;;;;;24.23;100.00;100554.16;105156;1262;65733;-56
2023/09/30 11:14:25;;;;;;;5.00;1.20;;;;;;;24.22;100.00;100550.74;104844;1261;72745;-56
2023/09/30 11:17:01;;;;;;;4.10;1.30;;;;;;;24.23;100.00;100554.73;104773;1268;61738;-55
2023/09/30 11:19:36;;;;;;;2.30;1.30;;;;;;;24.24;100.00;100549.82;104708;1257;59642;-54